Lacon, IL

2:00 AM CST on December 16, 2019 (GMT -0600)
Lacon

Weather History for KC75 - October, 2019

Change the Weather History Date:

Sunday, October 13, 2019

  Actual Average (KVYS) Record (KVYS)
Temperature  
Mean Temperature 46 °F -  
Max Temperature 59 °F 66 °F 86 °F (1975)
Min Temperature 32 °F 42 °F 23 °F (1988)
Degree Days  
Heating Degree Days 20    
Moisture  
Dew Point 33 °F    
Average Humidity 63    
Maximum Humidity 99    
Minimum Humidity 36    
Precipitation  
Precipitation 0.00 in - - ()
Sea Level Pressure  
Sea Level Pressure 29.89 in    
Wind  
Wind Speed 6 mph (West)    
Max Wind Speed 17 mph    
Max Gust Speed 26 mph    
Visibility 10 miles    
Events      
Averages and records for this station are not official NWS values.
T = Trace of Precipitation, MM = Missing Value Source: NWS Daily Summary

Daily Weather History Graph

Daily Weather History Graph

Search for Another Location

Airport or City:

Astronomy

Oct. 13, 2019 Rise Set
Actual Time 7:06 AM CDT 6:20 PM CDT
Civil Twilight 6:38 AM CDT 6:47 PM CDT
Nautical Twilight 6:06 AM CDT 7:19 PM CDT
Astronomical Twilight 5:34 AM CDT 7:51 PM CDT
Moon 6:43 PM CDT (10/13) 6:39 AM CDT (10/13)
Length of Visible Light 12h 08m
Length of Day
11h 13m
Full, 100% of the Moon is Illuminated
Oct 13
Full
Oct 13
Full
Oct 21
Last Quarter
Oct 27
New
Nov 4
First Quarter

Hourly Weather History & Observations

Time (CDT) Temp. Windchill Dew Point Humidity Pressure Visibility Wind Dir Wind Speed Gust Speed Precip Events Conditions
12:15 AM 49.3 °F - 33.8 °F 55% 29.85 in 10.0 mi WSW 5.8 mph - N/A   Clear
12:35 AM 47.5 °F - 34.0 °F 59% 29.84 in 10.0 mi SW 6.9 mph - N/A   Clear
12:55 AM 48.2 °F - 34.5 °F 59% 29.84 in 10.0 mi WSW 4.6 mph - N/A   Clear
1:15 AM 47.5 °F - 34.7 °F 61% 29.85 in 10.0 mi WNW 3.5 mph - N/A   Clear
1:35 AM 45.9 °F 43.6 °F 35.1 °F 66% 29.84 in 10.0 mi SW 4.6 mph - N/A   Clear
1:55 AM 44.6 °F 43.1 °F 35.6 °F 71% 29.85 in 10.0 mi WNW 3.5 mph - N/A   Clear
2:15 AM 40.8 °F 37.8 °F 34.9 °F 79% 29.86 in 10.0 mi NNW 4.6 mph - N/A   Clear
2:35 AM 39.2 °F - 33.8 °F 81% 29.86 in 10.0 mi Calm Calm - N/A   Clear
2:55 AM 38.3 °F - 33.6 °F 83% 29.86 in 10.0 mi Calm Calm - N/A   Clear
3:15 AM 37.0 °F - 33.1 °F 86% 29.86 in 10.0 mi Calm Calm - N/A   Clear
3:30 AM 35.4 °F - 32.2 °F 88% 29.86 in 10.0 mi Calm Calm - N/A   Clear
3:55 AM 34.7 °F - 32.5 °F 92% 29.86 in 10.0 mi Calm Calm - N/A   Clear
4:15 AM 34.3 °F - 32.4 °F 92% 29.86 in 10.0 mi Calm Calm - N/A   Clear
4:35 AM 34.3 °F - 33.1 °F 95% 29.86 in 10.0 mi Calm Calm - N/A   Clear
4:55 AM 33.1 °F - 32.2 °F 96% 29.87 in 10.0 mi Calm Calm - N/A   Clear
5:15 AM 33.1 °F - 32.0 °F 96% 29.87 in 10.0 mi Calm Calm - N/A   Clear
5:35 AM 32.5 °F 29.3 °F 32.0 °F 98% 29.88 in 10.0 mi SSE 3.5 mph - N/A   Clear
5:55 AM 32.5 °F 29.3 °F 32.0 °F 98% 29.88 in 10.0 mi SSE 3.5 mph - N/A   Clear
6:10 AM 32.2 °F 26.7 °F 31.8 °F 99% 29.88 in 10.0 mi South 5.8 mph - N/A   Clear
6:35 AM 32.4 °F 27.9 °F 31.5 °F 96% 29.88 in 10.0 mi SSW 4.6 mph - N/A   Clear
6:55 AM 34.2 °F 30.0 °F 32.7 °F 94% 29.88 in 10.0 mi SSW 4.6 mph - N/A   Clear
7:15 AM 34.2 °F 30.0 °F 32.7 °F 94% 29.88 in 10.0 mi South 4.6 mph - N/A   Clear
7:55 AM 36.1 °F 32.3 °F 32.9 °F 88% 29.89 in 10.0 mi SW 4.6 mph - N/A   Clear
8:15 AM 39.7 °F 36.5 °F 32.4 °F 75% 29.90 in 10.0 mi WSW 4.6 mph - N/A   Clear
8:35 AM 41.5 °F 37.8 °F 32.0 °F 69% 29.90 in 10.0 mi WSW 5.8 mph - N/A   Clear
8:55 AM 43.0 °F 38.8 °F 31.5 °F 64% 29.91 in 10.0 mi WSW 6.9 mph - N/A   Clear
9:15 AM 44.4 °F 40.5 °F 32.0 °F 62% 29.90 in 10.0 mi WSW 6.9 mph - N/A   Clear
9:35 AM 45.9 °F 41.7 °F 31.6 °F 58% 29.90 in 10.0 mi WSW 8.1 mph - N/A   Clear
9:55 AM 48.0 °F - 31.6 °F 53% 29.90 in 10.0 mi West 6.9 mph - N/A   Clear
10:15 AM 49.6 °F - 30.7 °F 48% 29.90 in 10.0 mi West 11.5 mph 17.3 mph N/A   Clear
10:35 AM 50.2 °F - 29.8 °F 46% 29.90 in 10.0 mi West 9.2 mph 17.3 mph N/A   Clear
10:55 AM 51.3 °F - 30.4 °F 45% 29.89 in 10.0 mi West 12.7 mph 18.4 mph N/A   Clear
11:15 AM 51.8 °F - 29.8 °F 43% 29.89 in 10.0 mi West 12.7 mph 17.3 mph N/A   Clear
11:35 AM 53.1 °F - 30.0 °F 41% 29.88 in 10.0 mi West 12.7 mph 20.7 mph N/A   Clear
11:55 AM 53.8 °F - 30.2 °F 41% 29.88 in 10.0 mi West 13.8 mph 20.7 mph N/A   Clear
12:15 PM 54.9 °F - 31.6 °F 41% 29.87 in 10.0 mi WSW 13.8 mph 18.4 mph N/A   Clear
12:35 PM 55.4 °F - 32.0 °F 41% 29.86 in 10.0 mi West 10.4 mph 20.7 mph N/A   Clear
12:55 PM 55.8 °F - 32.2 °F 41% 29.86 in 10.0 mi WSW 16.1 mph 20.7 mph N/A   Clear
1:15 PM 56.5 °F - 32.0 °F 39% 29.85 in 10.0 mi WSW 12.7 mph 21.9 mph N/A   Clear
1:35 PM 57.4 °F - 33.1 °F 40% 29.83 in 10.0 mi WSW 12.7 mph 19.6 mph N/A   Clear
1:55 PM 57.6 °F - 32.5 °F 39% 29.83 in 10.0 mi WSW 12.7 mph 20.7 mph N/A   Clear
2:15 PM 58.3 °F - 32.4 °F 38% 29.83 in 10.0 mi SW 15.0 mph 21.9 mph N/A   Clear
2:35 PM 59.0 °F - 32.2 °F 36% 29.83 in 10.0 mi West 15.0 mph 26.5 mph N/A   Clear
2:55 PM 58.8 °F - 32.2 °F 37% 29.84 in 10.0 mi West 17.3 mph 21.9 mph N/A   Clear
3:15 PM 58.5 °F - 33.6 °F 39% 29.84 in 10.0 mi West 17.3 mph 23.0 mph N/A   Clear
3:35 PM 57.4 °F - 33.3 °F 40% 29.84 in 10.0 mi West 11.5 mph 20.7 mph N/A   Clear
3:55 PM 57.2 °F - 34.3 °F 42% 29.85 in 10.0 mi West 12.7 mph 20.7 mph N/A   Scattered Clouds
4:15 PM 57.6 °F - 34.3 °F 42% 29.85 in 10.0 mi West 12.7 mph 20.7 mph N/A   Scattered Clouds
4:35 PM 58.1 °F - 34.0 °F 40% 29.85 in 10.0 mi West 13.8 mph 19.6 mph N/A   Scattered Clouds
4:55 PM 57.6 °F - 34.0 °F 41% 29.85 in 10.0 mi West 10.4 mph 18.4 mph N/A   Scattered Clouds
5:15 PM 58.1 °F - 34.3 °F 41% 29.86 in 10.0 mi West 11.5 mph - N/A   Clear
5:35 PM 56.7 °F - 34.2 °F 43% 29.87 in 10.0 mi West 9.2 mph 18.4 mph N/A   Clear
5:50 PM 56.3 °F - 34.9 °F 45% 29.87 in 10.0 mi West 10.4 mph - N/A   Clear
6:15 PM 54.1 °F - 35.4 °F 49% 29.88 in 10.0 mi WNW 5.8 mph - N/A   Scattered Clouds
6:35 PM 51.1 °F - 34.9 °F 54% 29.90 in 10.0 mi NNW 10.4 mph 18.4 mph N/A   Mostly Cloudy
6:55 PM 48.6 °F - 34.7 °F 59% 29.91 in 10.0 mi North 6.9 mph - N/A   Scattered Clouds
7:15 PM 47.5 °F - 34.5 °F 61% 29.93 in 10.0 mi North 6.9 mph - N/A   Clear
7:35 PM 47.5 °F - 33.8 °F 59% 29.94 in 10.0 mi North 5.8 mph - N/A   Clear
7:55 PM 47.3 °F - 33.4 °F 59% 29.94 in 10.0 mi North 4.6 mph - N/A   Clear
8:50 PM 45.7 °F 44.4 °F 34.0 °F 64% 29.95 in 10.0 mi NNW 3.5 mph - N/A   Overcast
9:15 PM 45.9 °F - 34.7 °F 65% 29.96 in 10.0 mi Calm Calm - N/A   Overcast
9:35 PM 46.2 °F - 34.0 °F 62% 29.96 in 10.0 mi Calm Calm - N/A   Overcast
9:55 PM 45.3 °F - 34.7 °F 66% 29.96 in 10.0 mi Calm Calm - N/A   Overcast
10:15 PM 43.9 °F - 35.1 °F 71% 29.97 in 10.0 mi Calm Calm - N/A   Overcast
10:35 PM 42.4 °F - 36.1 °F 78% 29.98 in 10.0 mi Calm Calm - N/A   Overcast
10:55 PM 42.8 °F - 37.9 °F 83% 29.98 in 10.0 mi Calm Calm - N/A   Overcast
11:15 PM 43.5 °F - 37.9 °F 81% 29.98 in 10.0 mi Calm Calm - N/A   Overcast
11:35 PM 42.6 °F - 38.1 °F 84% 29.99 in 10.0 mi Calm Calm - N/A   Overcast
11:55 PM 43.2 °F - 37.9 °F 82% 29.99 in 10.0 mi Calm Calm - N/A   Overcast